createdAt,value
2022-08-20T00:01:35.969Z,100864.81
2022-08-20T00:04:02.761Z,100864.19
2022-08-20T00:06:29.447Z,100879.13
2022-08-20T00:08:56.138Z,100884.19
2022-08-20T00:11:25.224Z,100873.09
2022-08-20T00:13:55.535Z,100876.88
2022-08-20T00:16:23.980Z,100881.09
2022-08-20T00:18:51.471Z,100881.47
2022-08-20T00:21:20.006Z,100884.22
2022-08-20T00:23:49.443Z,100875.31
2022-08-20T00:26:17.021Z,100885.06
2022-08-20T00:28:43.737Z,100894.06
2022-08-20T00:31:14.471Z,100894.53
2022-08-20T00:33:41.237Z,100900.38
2022-08-20T00:36:10.370Z,100888.28
2022-08-20T00:38:38.304Z,100891.59
2022-08-20T00:41:05.781Z,100895.16
2022-08-20T00:43:57.274Z,100893.81
2022-08-20T00:46:31.107Z,100895.44
2022-08-20T00:48:59.723Z,100896.41
2022-08-20T00:51:34.360Z,100890.00
2022-08-20T00:54:11.018Z,100889.25
2022-08-20T00:56:38.854Z,100885.53
2022-08-20T00:59:11.821Z,100891.09
2022-08-20T01:01:55.889Z,100896.78
2022-08-20T01:04:25.609Z,100892.97
2022-08-20T01:06:52.367Z,100894.06
2022-08-20T01:09:33.306Z,100894.19
2022-08-20T01:12:07.336Z,100891.97
2022-08-20T01:14:34.078Z,100893.06
2022-08-20T01:17:04.450Z,100897.53
2022-08-20T01:19:35.616Z,100904.31
2022-08-20T01:22:24.065Z,100902.84
2022-08-20T01:24:52.630Z,100904.19
2022-08-20T01:27:19.607Z,100892.97
2022-08-20T01:29:46.901Z,100904.06
2022-08-20T01:32:13.628Z,100900.13
2022-08-20T01:34:40.372Z,100905.19
2022-08-20T01:37:07.281Z,100895.06
2022-08-20T01:39:36.091Z,100894.06
2022-08-20T01:42:07.037Z,100896.28
2022-08-20T01:44:36.524Z,100898.53
2022-08-20T01:47:15.923Z,100899.50
2022-08-20T01:49:46.344Z,100901.22
2022-08-20T01:52:25.959Z,100901.38
2022-08-20T01:54:53.430Z,100903.19
2022-08-20T01:57:21.068Z,100911.09
2022-08-20T01:59:48.366Z,100902.84
2022-08-20T02:02:15.210Z,100906.19
2022-08-20T02:04:42.567Z,100904.31
2022-08-20T02:07:18.003Z,100905.91
2022-08-20T02:09:45.961Z,100908.91
2022-08-20T02:12:14.487Z,100912.34
2022-08-20T02:14:44.531Z,100905.44
2022-08-20T02:17:12.115Z,100910.13
2022-08-20T02:19:44.884Z,100915.06
2022-08-20T02:22:30.393Z,100922.69
2022-08-20T02:24:57.199Z,100920.59
2022-08-20T02:27:24.486Z,100922.69
2022-08-20T02:29:52.511Z,100931.84
2022-08-20T02:32:31.160Z,100922.34
2022-08-20T02:35:03.942Z,100925.06
2022-08-20T02:37:31.154Z,100923.19
2022-08-20T02:39:57.987Z,100931.97
2022-08-20T02:42:24.771Z,100929.97
2022-08-20T02:44:51.876Z,100936.66
2022-08-20T02:47:18.773Z,100927.50
2022-08-20T02:49:45.600Z,100940.34
2022-08-20T02:52:12.328Z,100937.03
2022-08-20T02:54:39.165Z,100937.50
2022-08-20T02:57:06.087Z,100939.88
2022-08-20T02:59:33.737Z,100930.72
2022-08-20T03:02:01.393Z,100928.13
2022-08-20T03:04:29.553Z,100922.97
2022-08-20T03:06:56.760Z,100929.25
2022-08-20T03:09:23.499Z,100917.53
2022-08-20T03:11:50.210Z,100915.41
2022-08-20T03:14:17.070Z,100909.16
2022-08-20T03:16:43.844Z,100908.38
2022-08-20T03:19:10.647Z,100895.56
2022-08-20T03:21:37.468Z,100898.16
2022-08-20T03:24:04.489Z,100902.34
2022-08-20T03:26:31.355Z,100891.59
2022-08-20T03:28:58.089Z,100891.75
2022-08-20T03:31:24.851Z,100892.22
2022-08-20T03:33:53.455Z,100899.78
2022-08-20T03:36:27.897Z,100902.84
2022-08-20T03:38:57.630Z,100893.72
2022-08-20T03:41:24.573Z,100890.28
2022-08-20T03:43:51.640Z,100901.72
2022-08-20T03:46:23.022Z,100894.81
2022-08-20T03:48:50.073Z,100904.19
2022-08-20T03:51:23.126Z,100893.97
2022-08-20T03:53:49.844Z,100908.78
2022-08-20T03:56:17.532Z,100901.00
2022-08-20T03:58:44.479Z,100907.28
2022-08-20T04:01:44.447Z,100902.97
2022-08-20T04:03:58.795Z,100892.72
2022-08-20T04:06:26.127Z,100899.75
2022-08-20T04:08:54.228Z,100910.47
2022-08-20T04:11:20.977Z,100905.44
2022-08-20T04:13:47.706Z,100920.72
2022-08-20T04:16:16.457Z,100928.13
2022-08-20T04:19:02.046Z,100924.69
2022-08-20T04:21:33.856Z,100933.09
2022-08-20T04:24:02.550Z,100937.28
2022-08-20T04:26:29.585Z,100928.88
2022-08-20T04:28:56.346Z,100923.81
2022-08-20T04:31:33.050Z,100927.13
2022-08-20T04:34:01.881Z,100929.25
2022-08-20T04:36:28.845Z,100926.41
2022-08-20T04:38:55.741Z,100931.34
2022-08-20T04:41:24.136Z,100927.66
2022-08-20T04:43:56.038Z,100927.50
2022-08-20T04:46:26.043Z,100931.13
2022-08-20T04:48:53.257Z,100930.00
2022-08-20T04:51:23.399Z,100931.47
2022-08-20T04:53:53.778Z,100924.44
2022-08-20T04:56:39.812Z,100930.00
2022-08-20T04:59:07.658Z,100937.16
2022-08-20T05:01:35.223Z,100938.38
2022-08-20T05:04:02.049Z,100940.09
2022-08-20T05:06:31.014Z,100938.75
2022-08-20T05:08:59.211Z,100950.25
2022-08-20T05:11:34.160Z,100951.50
2022-08-20T05:14:07.840Z,100958.63
2022-08-20T05:16:38.201Z,100956.66
2022-08-20T05:19:06.698Z,100952.22
2022-08-20T05:21:34.139Z,100955.78
2022-08-20T05:24:01.298Z,100957.50
2022-08-20T05:26:28.294Z,100957.16
2022-08-20T05:28:59.090Z,100955.53
2022-08-20T05:31:30.852Z,100956.53
2022-08-20T05:34:10.049Z,100957.50
2022-08-20T05:36:39.861Z,100953.09
2022-08-20T05:39:06.637Z,100943.94
2022-08-20T05:41:33.478Z,100946.16
2022-08-20T05:44:03.514Z,100952.34
2022-08-20T05:46:31.875Z,100952.44
2022-08-20T05:49:01.794Z,100954.28
2022-08-20T05:51:29.812Z,100965.78
2022-08-20T05:53:58.243Z,100959.00
2022-08-20T05:56:27.285Z,100964.31
2022-08-20T05:58:54.611Z,100963.81
2022-08-20T06:01:21.815Z,100963.69
2022-08-20T06:04:07.123Z,100958.88
2022-08-20T06:06:44.260Z,100964.03
2022-08-20T06:09:12.227Z,100963.31
2022-08-20T06:11:39.356Z,100968.38
2022-08-20T06:14:06.072Z,100980.25
2022-08-20T06:16:32.857Z,100975.66
2022-08-20T06:19:00.018Z,100975.28
2022-08-20T06:21:29.801Z,100970.59
2022-08-20T06:23:59.007Z,100982.56
2022-08-20T06:26:30.425Z,100984.06
2022-08-20T06:28:58.691Z,100989.25
2022-08-20T06:31:25.416Z,100990.97
2022-08-20T06:33:52.366Z,100993.22
2022-08-20T06:36:19.499Z,100994.22
2022-08-20T06:38:46.763Z,100994.22
2022-08-20T06:41:14.213Z,100993.47
2022-08-20T06:43:40.992Z,100994.84
2022-08-20T06:46:07.984Z,101004.59
2022-08-20T06:48:34.998Z,101002.50
2022-08-20T06:51:01.898Z,101004.34
2022-08-20T06:53:29.295Z,101006.19
2022-08-20T06:55:58.996Z,101003.34
2022-08-20T06:58:36.782Z,101012.63
2022-08-20T07:01:11.109Z,101003.69
2022-08-20T07:03:54.385Z,101007.19
2022-08-20T07:06:22.211Z,101001.34
2022-08-20T07:08:48.961Z,101008.13
2022-08-20T07:11:15.748Z,101010.84
2022-08-20T07:13:42.561Z,101013.81
2022-08-20T07:16:09.545Z,101022.34
2022-08-20T07:18:36.557Z,101030.00
2022-08-20T07:21:03.801Z,101031.53
2022-08-20T07:23:31.858Z,101035.00
2022-08-20T07:25:58.881Z,101027.81
2022-08-20T07:28:29.032Z,101031.25
2022-08-20T07:31:15.896Z,101041.28
2022-08-20T07:33:44.519Z,101032.72
2022-08-20T07:36:12.426Z,101040.03
2022-08-20T07:38:39.179Z,101037.31
2022-08-20T07:41:13.630Z,101049.41
2022-08-20T07:43:41.820Z,101042.72
2022-08-20T07:46:09.865Z,101032.13
2022-08-20T07:48:46.298Z,101034.47
2022-08-20T07:51:14.527Z,101036.41
2022-08-20T07:53:41.660Z,101040.34
2022-08-20T07:56:11.663Z,101032.72
2022-08-20T07:58:42.394Z,101040.97
2022-08-20T08:01:11.670Z,101031.72
2022-08-20T08:03:40.928Z,101037.63
2022-08-20T08:06:19.625Z,101034.56
2022-08-20T08:08:59.104Z,101042.75
2022-08-20T08:11:25.942Z,101044.97
2022-08-20T08:13:52.732Z,101047.81
2022-08-20T08:16:20.309Z,101054.59
2022-08-20T08:18:50.215Z,101058.34
2022-08-20T08:21:18.470Z,101055.63
2022-08-20T08:23:45.665Z,101054.09
2022-08-20T08:26:16.241Z,101053.13
2022-08-20T08:28:46.815Z,101053.00
2022-08-20T08:31:14.990Z,101061.13
2022-08-20T08:33:42.316Z,101060.28
2022-08-20T08:36:14.290Z,101065.47
2022-08-20T08:38:44.380Z,101070.75
2022-08-20T08:41:32.090Z,101064.59
2022-08-20T08:44:06.986Z,101069.16
2022-08-20T08:46:44.502Z,101071.13
2022-08-20T08:49:15.188Z,101058.31
2022-08-20T08:51:46.443Z,101067.94
2022-08-20T08:54:17.554Z,101072.88
2022-08-20T08:56:49.797Z,101078.44
2022-08-20T08:59:17.083Z,101080.53
2022-08-20T09:01:56.292Z,101075.72
2022-08-20T09:04:31.845Z,101092.78
2022-08-20T09:06:59.691Z,101096.28
2022-08-20T09:09:29.514Z,101091.72
2022-08-20T09:12:04.478Z,101085.38
2022-08-20T09:14:31.363Z,101079.56
2022-08-20T09:16:58.300Z,101090.44
2022-08-20T09:19:25.318Z,101092.66
2022-08-20T09:21:52.149Z,101088.69
2022-08-20T09:24:18.943Z,101087.94
2022-08-20T09:26:46.171Z,101091.53
2022-08-20T09:29:12.988Z,101088.44
2022-08-20T09:31:39.772Z,101090.41
2022-08-20T09:34:07.253Z,101087.97
2022-08-20T09:36:34.027Z,101083.63
2022-08-20T09:39:02.848Z,101080.88
2022-08-20T09:41:31.216Z,101078.38
2022-08-20T09:44:00.699Z,101087.91
2022-08-20T09:46:27.722Z,101086.88
2022-08-20T09:48:55.196Z,101080.06
2022-08-20T09:51:22.243Z,101090.50
2022-08-20T09:53:49.246Z,101079.72
2022-08-20T09:56:16.417Z,101082.38
2022-08-20T09:58:49.850Z,101087.38
2022-08-20T10:01:18.733Z,101087.69
2022-08-20T10:03:48.965Z,101083.41
2022-08-20T10:06:17.973Z,101083.69
2022-08-20T10:08:44.694Z,101080.16
2022-08-20T10:11:11.692Z,101077.00
2022-08-20T10:13:38.512Z,101072.34
2022-08-20T10:16:05.506Z,101085.22
2022-08-20T10:18:32.376Z,101074.78
2022-08-20T10:20:59.207Z,101088.19
2022-08-20T10:23:26.046Z,101086.47
2022-08-20T10:25:52.844Z,101091.47
2022-08-20T10:28:19.641Z,101084.94
2022-08-20T10:30:47.167Z,101084.38
2022-08-20T10:33:14.049Z,101093.78
2022-08-20T10:35:40.947Z,101087.91
2022-08-20T10:38:07.848Z,101086.25
2022-08-20T10:40:34.675Z,101092.09
2022-08-20T10:43:02.062Z,101096.75
2022-08-20T10:45:28.936Z,101090.84
2022-08-20T10:47:59.422Z,101093.22
2022-08-20T10:50:30.585Z,101095.81
2022-08-20T10:52:58.327Z,101097.69
2022-08-20T10:55:25.259Z,101087.59
2022-08-20T10:57:52.317Z,101092.94
2022-08-20T11:00:19.456Z,101095.66
2022-08-20T11:02:46.313Z,101099.13
2022-08-20T11:05:13.173Z,101098.50
2022-08-20T11:07:49.826Z,101106.03
2022-08-20T11:10:25.182Z,101104.69
2022-08-20T11:12:52.068Z,101106.81
2022-08-20T11:15:18.860Z,101103.09
2022-08-20T11:17:46.100Z,101102.78
2022-08-20T11:20:15.060Z,101110.34
2022-08-20T11:22:41.876Z,101108.59
2022-08-20T11:25:09.601Z,101107.00
2022-08-20T11:27:45.255Z,101114.06
2022-08-20T11:30:20.891Z,101112.31
2022-08-20T11:32:47.580Z,101116.03
2022-08-20T11:35:41.114Z,101113.97
2022-08-20T11:38:01.138Z,101116.72
2022-08-20T11:40:29.458Z,101120.09
2022-08-20T11:43:14.198Z,101116.25
2022-08-20T11:45:42.292Z,101117.84
2022-08-20T11:48:09.056Z,101120.56
2022-08-20T11:50:35.766Z,101120.63
2022-08-20T11:53:02.490Z,101119.22
2022-08-20T11:55:30.208Z,101124.22
2022-08-20T11:58:00.305Z,101117.34
2022-08-20T12:00:33.167Z,101129.19
2022-08-20T12:03:05.479Z,101125.00
2022-08-20T12:05:35.367Z,101127.25
2022-08-20T12:08:02.384Z,101122.41
2022-08-20T12:10:29.849Z,101125.03
2022-08-20T12:12:56.883Z,101123.69
2022-08-20T12:15:24.219Z,101123.03
2022-08-20T12:17:51.115Z,101119.09
2022-08-20T12:20:18.034Z,101124.66
2022-08-20T12:22:44.815Z,101121.53
2022-08-20T12:25:14.945Z,101126.72
2022-08-20T12:27:42.455Z,101127.53
2022-08-20T12:30:15.605Z,101130.56
2022-08-20T12:32:42.714Z,101127.34
2022-08-20T12:35:10.722Z,101127.38
2022-08-20T12:37:37.873Z,101131.00
2022-08-20T12:40:08.201Z,101129.78
2022-08-20T12:42:35.142Z,101130.06
2022-08-20T12:45:02.314Z,101128.44
2022-08-20T12:47:34.444Z,101126.13
2022-08-20T12:50:05.050Z,101127.59
2022-08-20T12:52:32.637Z,101129.25
2022-08-20T12:54:59.682Z,101124.66
2022-08-20T12:57:32.246Z,101131.69
2022-08-20T13:00:01.692Z,101127.91
2022-08-20T13:02:30.542Z,101132.59
2022-08-20T13:05:00.120Z,101134.09
2022-08-20T13:07:29.350Z,101130.66
2022-08-20T13:09:56.182Z,101128.72
2022-08-20T13:12:23.091Z,101136.13
2022-08-20T13:14:49.777Z,101131.66
2022-08-20T13:17:18.370Z,101128.94
2022-08-20T13:19:46.211Z,101134.50
2022-08-20T13:22:14.128Z,101135.75
2022-08-20T13:24:41.142Z,101135.91
2022-08-20T13:27:09.378Z,101137.88
2022-08-20T13:29:36.242Z,101148.03
2022-08-20T13:32:03.171Z,101140.84
2022-08-20T13:34:30.194Z,101148.16
2022-08-20T13:36:57.447Z,101144.44
2022-08-20T13:39:24.562Z,101142.72
2022-08-20T13:41:51.249Z,101134.44
2022-08-20T13:44:18.539Z,101137.41
2022-08-20T13:46:45.359Z,101142.09
2022-08-20T13:49:12.241Z,101133.66
2022-08-20T13:51:39.107Z,101142.22
2022-08-20T13:54:05.854Z,101143.69
2022-08-20T13:56:37.511Z,101145.28
2022-08-20T13:59:04.264Z,101138.41
2022-08-20T14:01:31.284Z,101142.59
2022-08-20T14:03:58.528Z,101136.31
2022-08-20T14:06:26.625Z,101133.59
2022-08-20T14:08:53.435Z,101139.03
2022-08-20T14:11:20.731Z,101130.97
2022-08-20T14:13:48.081Z,101134.16
2022-08-20T14:16:21.236Z,101129.75
2022-08-20T14:18:56.382Z,101131.09
2022-08-20T14:21:23.403Z,101127.03
2022-08-20T14:23:50.112Z,101132.34
2022-08-20T14:26:16.970Z,101139.25
2022-08-20T14:28:43.804Z,101141.84
2022-08-20T14:31:10.544Z,101140.63
2022-08-20T14:33:39.314Z,101149.50
2022-08-20T14:36:09.501Z,101147.25
2022-08-20T14:38:37.833Z,101156.16
2022-08-20T14:41:04.657Z,101158.03
2022-08-20T14:43:31.595Z,101152.69
2022-08-20T14:45:58.454Z,101155.53
2022-08-20T14:48:28.159Z,101143.81
2022-08-20T14:50:56.044Z,101146.28
2022-08-20T14:53:22.882Z,101142.94
2022-08-20T14:55:49.715Z,101146.19
2022-08-20T14:58:17.575Z,101139.13
2022-08-20T15:00:45.170Z,101144.19
2022-08-20T15:03:13.527Z,101139.50
2022-08-20T15:05:40.734Z,101138.13
2022-08-20T15:08:10.583Z,101141.72
2022-08-20T15:10:39.017Z,101136.41
2022-08-20T15:13:05.811Z,101140.72
2022-08-20T15:15:33.756Z,101142.44
2022-08-20T15:18:01.116Z,101140.00
2022-08-20T15:20:31.460Z,101131.94
2022-08-20T15:22:58.793Z,101135.53
2022-08-20T15:25:36.770Z,101138.75
2022-08-20T15:28:06.292Z,101132.94
2022-08-20T15:30:33.585Z,101139.00
2022-08-20T15:33:00.891Z,101136.03
2022-08-20T15:35:28.598Z,101138.25
2022-08-20T15:37:57.279Z,101143.34
2022-08-20T15:40:28.550Z,101138.47
2022-08-20T15:42:59.515Z,101144.94
2022-08-20T15:45:27.224Z,101141.19
2022-08-20T15:47:55.585Z,101139.38
2022-08-20T15:50:25.029Z,101141.94
2022-08-20T15:52:52.057Z,101147.25
2022-08-20T15:55:18.842Z,101150.72
2022-08-20T15:58:08.770Z,101149.88
2022-08-20T16:00:53.678Z,101142.66
2022-08-20T16:04:06.377Z,101147.25
2022-08-20T16:06:33.593Z,101147.66
2022-08-20T16:09:20.354Z,101138.13
2022-08-20T16:12:05.694Z,101140.72
2022-08-20T16:14:39.740Z,101144.09
2022-08-20T16:17:10.278Z,101146.16
2022-08-20T16:19:58.319Z,101144.31
2022-08-20T16:22:27.686Z,101146.03
2022-08-20T16:24:54.628Z,101144.81
2022-08-20T16:27:36.926Z,101137.91
2022-08-20T16:30:08.808Z,101146.69
2022-08-20T16:32:46.077Z,101150.41
2022-08-20T16:35:16.198Z,101146.06
2022-08-20T16:37:55.799Z,101154.22
2022-08-20T16:40:29.881Z,101149.78
2022-08-20T16:42:59.292Z,101160.75
2022-08-20T16:45:30.431Z,101156.56
2022-08-20T16:48:01.963Z,101163.09
2022-08-20T16:50:37.697Z,101159.66
2022-08-20T16:53:04.659Z,101159.66
2022-08-20T16:55:31.632Z,101162.47
2022-08-20T16:57:58.525Z,101151.50
2022-08-20T17:00:35.466Z,101158.16
2022-08-20T17:03:34.945Z,101158.16
2022-08-20T17:06:27.513Z,101151.09
2022-08-20T17:08:55.082Z,101156.53
2022-08-20T17:11:33.311Z,101155.56
2022-08-20T17:14:09.306Z,101164.69
2022-08-20T17:16:39.984Z,101160.13
2022-08-20T17:19:12.879Z,101159.25
2022-08-20T17:21:40.654Z,101164.81
2022-08-20T17:24:18.383Z,101165.81
2022-08-20T17:26:50.613Z,101171.13
2022-08-20T17:29:23.908Z,101167.78
2022-08-20T17:31:56.293Z,101171.00
2022-08-20T17:34:44.764Z,101171.13
2022-08-20T17:37:22.599Z,101180.53
2022-08-20T17:39:54.256Z,101179.53
2022-08-20T17:42:25.835Z,101180.66
2022-08-20T17:45:05.811Z,101175.31
2022-08-20T17:47:35.072Z,101184.47
2022-08-20T17:50:13.354Z,101180.00
2022-08-20T17:52:45.763Z,101190.16
2022-08-20T17:55:12.979Z,101182.22
2022-08-20T17:57:44.053Z,101199.38
2022-08-20T18:00:15.123Z,101205.31
2022-08-20T18:02:42.969Z,101209.97
2022-08-20T18:05:15.015Z,101209.31
2022-08-20T18:07:53.109Z,101211.66
2022-08-20T18:10:26.582Z,101214.84
2022-08-20T18:13:15.322Z,101220.91
2022-08-20T18:15:50.795Z,101221.41
2022-08-20T18:18:23.715Z,101219.44
2022-08-20T18:21:15.531Z,101212.19
2022-08-20T18:24:06.483Z,101209.06
2022-08-20T18:26:42.253Z,101215.34
2022-08-20T18:29:11.878Z,101212.03
2022-08-20T18:31:49.835Z,101207.66
2022-08-20T18:34:20.100Z,101205.69
2022-08-20T18:36:58.395Z,101201.38
2022-08-20T18:39:31.004Z,101206.91
2022-08-20T18:42:04.051Z,101205.41
2022-08-20T18:44:44.411Z,101209.34
2022-08-20T18:47:33.227Z,101215.03
2022-08-20T18:50:16.867Z,101207.94
2022-08-20T18:53:05.945Z,101219.06
2022-08-20T18:55:40.842Z,101216.44
2022-08-20T18:58:13.333Z,101222.88
2022-08-20T19:00:48.728Z,101225.91
2022-08-20T19:03:23.612Z,101224.50
2022-08-20T19:06:25.010Z,101222.91
2022-08-20T19:09:15.103Z,101230.28
2022-08-20T19:12:19.720Z,101225.22
2022-08-20T19:15:07.052Z,101224.56
2022-08-20T19:17:51.919Z,101226.28
2022-08-20T19:20:25.994Z,101229.13
2022-08-20T19:22:54.589Z,101227.28
2022-08-20T19:25:30.688Z,101227.63
2022-08-20T19:28:20.257Z,101224.13
2022-08-20T19:30:47.055Z,101229.88
2022-08-20T19:33:32.734Z,101229.13
2022-08-20T19:36:27.596Z,101235.44
2022-08-20T19:38:57.513Z,101225.66
2022-08-20T19:41:38.912Z,101229.38
2022-08-20T19:44:05.667Z,101230.44
2022-08-20T19:46:43.113Z,101227.72
2022-08-20T19:49:35.768Z,101225.00
2022-08-20T19:52:41.971Z,101224.91
2022-08-20T19:55:24.293Z,101224.69
2022-08-20T19:57:56.945Z,101228.25
2022-08-20T20:00:26.068Z,101225.66
2022-08-20T20:02:52.836Z,101229.47
2022-08-20T20:05:19.501Z,101232.53
2022-08-20T20:07:49.205Z,101237.94
2022-08-20T20:10:32.322Z,101232.63
2022-08-20T20:13:07.824Z,101222.22
2022-08-20T20:15:34.774Z,101232.53
2022-08-20T20:18:01.785Z,101236.19
2022-08-20T20:20:31.293Z,101230.78
2022-08-20T20:23:05.863Z,101223.50
2022-08-20T20:25:34.176Z,101224.38
2022-08-20T20:28:31.541Z,101238.91
2022-08-20T20:31:12.466Z,101233.72
2022-08-20T20:33:44.101Z,101235.53
2022-08-20T20:36:18.878Z,101234.47
2022-08-20T20:39:05.692Z,101226.44
2022-08-20T20:41:33.342Z,101237.94
2022-08-20T20:44:07.890Z,101236.00
2022-08-20T20:46:35.531Z,101241.28
2022-08-20T20:49:19.199Z,101227.09
2022-08-20T20:51:54.593Z,101235.22
2022-08-20T20:54:26.178Z,101234.34
2022-08-20T20:56:59.790Z,101241.53
2022-08-20T20:59:27.219Z,101238.91
2022-08-20T21:01:53.960Z,101238.06
2022-08-20T21:04:22.458Z,101240.66
2022-08-20T21:06:50.179Z,101230.78
2022-08-20T21:09:17.499Z,101238.06
2022-08-20T21:11:44.507Z,101229.25
2022-08-20T21:14:11.345Z,101234.47
2022-08-20T21:16:38.041Z,101227.31
2022-08-20T21:19:06.787Z,101225.59
2022-08-20T21:21:33.923Z,101227.41
2022-08-20T21:24:00.766Z,101227.31
2022-08-20T21:26:27.976Z,101217.31
2022-08-20T21:28:54.884Z,101220.03
2022-08-20T21:31:21.913Z,101210.28
2022-08-20T21:33:48.620Z,101218.22
2022-08-20T21:36:15.563Z,101215.69
2022-08-20T21:38:42.316Z,101225.69
2022-08-20T21:41:09.158Z,101224.94
2022-08-20T21:43:35.859Z,101223.19
2022-08-20T21:46:04.247Z,101222.31
2022-08-20T21:48:32.355Z,101220.56
2022-08-20T21:50:59.153Z,101214.09
2022-08-20T21:53:25.964Z,101212.56
2022-08-20T21:55:53.006Z,101216.16
2022-08-20T21:58:20.768Z,101212.34
2022-08-20T22:00:56.884Z,101207.66
2022-08-20T22:03:26.339Z,101197.91
2022-08-20T22:05:54.339Z,101205.94
2022-08-20T22:08:22.061Z,101201.38
2022-08-20T22:10:54.262Z,101199.53
2022-08-20T22:13:22.239Z,101195.97
2022-08-20T22:15:49.065Z,101200.53
2022-08-20T22:18:16.976Z,101199.53
2022-08-20T22:20:44.439Z,101195.22
2022-08-20T22:23:12.138Z,101195.22
2022-08-20T22:25:39.155Z,101196.06
2022-08-20T22:28:05.911Z,101196.16
2022-08-20T22:30:33.235Z,101194.44
2022-08-20T22:33:15.117Z,101191.00
2022-08-20T22:35:45.758Z,101194.34
2022-08-20T22:38:12.715Z,101187.06
2022-08-20T22:40:39.446Z,101188.03
2022-08-20T22:43:06.269Z,101197.91
2022-08-20T22:45:33.153Z,101200.63
2022-08-20T22:48:00.122Z,101193.47
2022-08-20T22:50:26.842Z,101198.78
2022-08-20T22:52:53.924Z,101199.88
2022-08-20T22:55:21.175Z,101208.88
2022-08-20T22:57:47.957Z,101200.53
2022-08-20T23:00:17.142Z,101200.53
2022-08-20T23:02:45.230Z,101201.28
2022-08-20T23:05:14.143Z,101201.38
2022-08-20T23:07:41.340Z,101195.00
2022-08-20T23:10:08.805Z,101198.56
2022-08-20T23:12:36.122Z,101196.81
2022-08-20T23:15:03.207Z,101198.78
2022-08-20T23:17:29.922Z,101196.81
2022-08-20T23:19:56.682Z,101196.63
2022-08-20T23:22:23.578Z,101204.66
2022-08-20T23:24:50.421Z,101197.25
2022-08-20T23:27:20.462Z,101203.88
2022-08-20T23:29:47.823Z,101204.66
2022-08-20T23:32:14.536Z,101204.66
2022-08-20T23:34:41.600Z,101200.28
2022-08-20T23:37:09.233Z,101202.13
2022-08-20T23:39:36.082Z,101207.78
2022-08-20T23:42:04.020Z,101207.03
2022-08-20T23:44:30.765Z,101202.59
2022-08-20T23:46:59.765Z,101198.38
2022-08-20T23:49:27.453Z,101209.22
2022-08-20T23:51:54.223Z,101203.78
2022-08-20T23:54:21.139Z,101205.44
2022-08-20T23:56:47.883Z,101209.09
2022-08-20T23:59:14.589Z,101211.72
